KDAA

Davison AAF Airport

Fort Belvoir, Virginia, USA
METAR KDAA 191756Z AUTO 34006KT 10SM FEW040 30/23 A2993 RMK AO2 SLP138 T02960230 10300 20224 55003 TSNO $
Observed Flight Rules
Sep-19 @ 17:56 UTC (50 minutes ago) Visual Flight Rules
Wind Visibility Clouds
340° at 6 knots 10 miles
  • Few at 4,000' AGL
Temperatures Readings
Current 30°C / 86°F
Dewpoint 23°C / 73°F
Humidity 66%
Altimeter 29.93" Hg
Pressure 1013.8 hPa
Elevation 21
METAR KDAA 191756Z AUTO 34006KT 10SM FEW040 30/23 A2993 RMK AO2 SLP138 T02960230 10300 20224 55003 TSNO $
Observed Flight Rules
Sep-19 @ 17:56 UTC
(50 minutes ago)
VFR
Wind Visibility
340° at 6 knots 10 miles
Clouds
  • Few at 4,000' AGL
Temperature Dewpoint
30°C / 86°F 23°C / 73°F
Humidity Altimeter Pressure
66% 29.93" Hg 1013.8 hPa